sensor_id;sensor_type;location;lat;lon;timestamp;temperature;humidity
67358;HTU21D;54240;51.096;5.878;2022-09-09T00:03:44;13.85;118.99
67358;HTU21D;54240;51.096;5.878;2022-09-09T00:06:18;13.85;118.99
67358;HTU21D;54240;51.096;5.878;2022-09-09T00:09:02;13.82;118.99
67358;HTU21D;54240;51.096;5.878;2022-09-09T00:11:51;13.80;118.99
67358;HTU21D;54240;51.096;5.878;2022-09-09T00:14:35;13.77;118.99
67358;HTU21D;54240;51.096;5.878;2022-09-09T00:17:09;13.75;118.99
67358;HTU21D;54240;51.096;5.878;2022-09-09T00:19:56;13.70;118.99
67358;HTU21D;54240;51.096;5.878;2022-09-09T00:22:28;13.70;118.99
67358;HTU21D;54240;51.096;5.878;2022-09-09T00:25:10;13.67;118.99
67358;HTU21D;54240;51.096;5.878;2022-09-09T00:27:48;13.64;118.99
67358;HTU21D;54240;51.096;5.878;2022-09-09T00:30:24;13.63;118.99
67358;HTU21D;54240;51.096;5.878;2022-09-09T00:32:55;13.65;118.99
67358;HTU21D;54240;51.096;5.878;2022-09-09T00:35:24;13.63;118.99
67358;HTU21D;54240;51.096;5.878;2022-09-09T00:37:56;13.63;118.99
67358;HTU21D;54240;51.096;5.878;2022-09-09T00:40:32;13.66;118.99
67358;HTU21D;54240;51.096;5.878;2022-09-09T00:49:01;13.63;118.99
67358;HTU21D;54240;51.096;5.878;2022-09-09T00:57:26;13.49;118.99
67358;HTU21D;54240;51.096;5.878;2022-09-09T01:08:43;13.55;118.99
67358;HTU21D;54240;51.096;5.878;2022-09-09T01:11:21;13.52;118.99
67358;HTU21D;54240;51.096;5.878;2022-09-09T01:13:56;13.54;118.99
67358;HTU21D;54240;51.096;5.878;2022-09-09T01:16:29;13.74;118.99
67358;HTU21D;54240;51.096;5.878;2022-09-09T01:18:59;13.68;118.99
67358;HTU21D;54240;51.096;5.878;2022-09-09T01:21:35;13.61;118.99
67358;HTU21D;54240;51.096;5.878;2022-09-09T01:24:30;13.69;118.99
67358;HTU21D;54240;51.096;5.878;2022-09-09T01:27:18;13.52;118.99
67358;HTU21D;54240;51.096;5.878;2022-09-09T01:29:45;13.60;118.99
67358;HTU21D;54240;51.096;5.878;2022-09-09T01:32:42;13.59;118.99
67358;HTU21D;54240;51.096;5.878;2022-09-09T01:35:18;13.59;118.99
67358;HTU21D;54240;51.096;5.878;2022-09-09T01:37:48;13.60;118.99
67358;HTU21D;54240;51.096;5.878;2022-09-09T01:40:14;13.64;118.99
67358;HTU21D;54240;51.096;5.878;2022-09-09T01:42:40;13.63;118.99
67358;HTU21D;54240;51.096;5.878;2022-09-09T01:45:07;13.63;118.99
67358;HTU21D;54240;51.096;5.878;2022-09-09T01:47:34;13.62;118.99
67358;HTU21D;54240;51.096;5.878;2022-09-09T01:50:16;13.60;118.99
67358;HTU21D;54240;51.096;5.878;2022-09-09T01:52:44;13.61;118.99
67358;HTU21D;54240;51.096;5.878;2022-09-09T01:55:13;13.61;118.99
67358;HTU21D;54240;51.096;5.878;2022-09-09T01:58:02;13.58;118.99
67358;HTU21D;54240;51.096;5.878;2022-09-09T02:00:30;13.56;118.99
67358;HTU21D;54240;51.096;5.878;2022-09-09T02:03:25;13.56;118.99
67358;HTU21D;54240;51.096;5.878;2022-09-09T02:09:02;13.54;118.99
67358;HTU21D;54240;51.096;5.878;2022-09-09T02:11:30;13.52;118.99
67358;HTU21D;54240;51.096;5.878;2022-09-09T02:14:17;13.55;118.99
67358;HTU21D;54240;51.096;5.878;2022-09-09T02:16:59;13.58;118.99
67358;HTU21D;54240;51.096;5.878;2022-09-09T02:19:49;13.62;118.99
67358;HTU21D;54240;51.096;5.878;2022-09-09T02:22:26;13.65;118.99
67358;HTU21D;54240;51.096;5.878;2022-09-09T02:24:57;13.67;118.99
67358;HTU21D;54240;51.096;5.878;2022-09-09T02:27:26;13.70;118.99
67358;HTU21D;54240;51.096;5.878;2022-09-09T02:29:55;13.74;118.99
67358;HTU21D;54240;51.096;5.878;2022-09-09T02:32:35;13.79;118.99
67358;HTU21D;54240;51.096;5.878;2022-09-09T02:35:15;13.77;118.99
67358;HTU21D;54240;51.096;5.878;2022-09-09T02:37:44;13.85;118.99
67358;HTU21D;54240;51.096;5.878;2022-09-09T02:40:14;13.81;118.99
67358;HTU21D;54240;51.096;5.878;2022-09-09T02:42:49;13.80;118.99
67358;HTU21D;54240;51.096;5.878;2022-09-09T02:45:19;13.81;118.99
67358;HTU21D;54240;51.096;5.878;2022-09-09T02:56:45;13.88;118.99
67358;HTU21D;54240;51.096;5.878;2022-09-09T02:59:12;13.86;118.99
67358;HTU21D;54240;51.096;5.878;2022-09-09T03:01:38;13.92;118.99
67358;HTU21D;54240;51.096;5.878;2022-09-09T03:04:06;13.94;118.99
67358;HTU21D;54240;51.096;5.878;2022-09-09T03:06:32;13.98;118.99
67358;HTU21D;54240;51.096;5.878;2022-09-09T03:09:07;14.07;118.99
67358;HTU21D;54240;51.096;5.878;2022-09-09T03:11:36;14.06;118.99
67358;HTU21D;54240;51.096;5.878;2022-09-09T03:14:05;14.07;118.99
67358;HTU21D;54240;51.096;5.878;2022-09-09T03:16:31;14.13;118.99
67358;HTU21D;54240;51.096;5.878;2022-09-09T03:18:59;14.14;118.99
67358;HTU21D;54240;51.096;5.878;2022-09-09T03:21:25;14.14;118.99
67358;HTU21D;54240;51.096;5.878;2022-09-09T03:23:51;14.14;118.99
67358;HTU21D;54240;51.096;5.878;2022-09-09T03:26:17;14.15;118.99
67358;HTU21D;54240;51.096;5.878;2022-09-09T03:28:45;14.07;118.99
67358;HTU21D;54240;51.096;5.878;2022-09-09T03:31:14;14.12;118.99
67358;HTU21D;54240;51.096;5.878;2022-09-09T03:33:41;14.09;118.99
67358;HTU21D;54240;51.096;5.878;2022-09-09T03:36:09;14.14;118.99
67358;HTU21D;54240;51.096;5.878;2022-09-09T03:38:36;14.20;118.99
67358;HTU21D;54240;51.096;5.878;2022-09-09T03:41:01;14.25;118.99
67358;HTU21D;54240;51.096;5.878;2022-09-09T03:43:29;14.26;118.99
67358;HTU21D;54240;51.096;5.878;2022-09-09T03:45:56;14.23;118.99
67358;HTU21D;54240;51.096;5.878;2022-09-09T03:48:27;14.27;118.99
67358;HTU21D;54240;51.096;5.878;2022-09-09T03:50:54;14.22;118.99
67358;HTU21D;54240;51.096;5.878;2022-09-09T03:53:24;14.29;118.99
67358;HTU21D;54240;51.096;5.878;2022-09-09T03:55:53;14.23;118.99
67358;HTU21D;54240;51.096;5.878;2022-09-09T03:58:26;14.23;118.99
67358;HTU21D;54240;51.096;5.878;2022-09-09T04:00:58;14.25;118.99
67358;HTU21D;54240;51.096;5.878;2022-09-09T04:03:26;14.20;118.99
67358;HTU21D;54240;51.096;5.878;2022-09-09T04:05:54;14.24;118.99
67358;HTU21D;54240;51.096;5.878;2022-09-09T04:08:22;14.28;118.99
67358;HTU21D;54240;51.096;5.878;2022-09-09T04:10:49;14.30;118.99
67358;HTU21D;54240;51.096;5.878;2022-09-09T04:13:17;14.32;118.99
67358;HTU21D;54240;51.096;5.878;2022-09-09T04:15:50;14.39;118.99
67358;HTU21D;54240;51.096;5.878;2022-09-09T04:18:17;14.35;118.99
67358;HTU21D;54240;51.096;5.878;2022-09-09T04:20:42;14.45;118.99
67358;HTU21D;54240;51.096;5.878;2022-09-09T04:23:09;14.45;118.99
67358;HTU21D;54240;51.096;5.878;2022-09-09T04:25:35;14.44;118.99
67358;HTU21D;54240;51.096;5.878;2022-09-09T04:28:01;14.50;118.99
67358;HTU21D;54240;51.096;5.878;2022-09-09T04:30:28;14.52;118.99
67358;HTU21D;54240;51.096;5.878;2022-09-09T04:32:54;14.57;118.99
67358;HTU21D;54240;51.096;5.878;2022-09-09T04:35:20;14.55;118.99
67358;HTU21D;54240;51.096;5.878;2022-09-09T04:37:46;14.57;118.99
67358;HTU21D;54240;51.096;5.878;2022-09-09T04:40:13;14.57;118.99
67358;HTU21D;54240;51.096;5.878;2022-09-09T04:42:40;14.55;118.99
67358;HTU21D;54240;51.096;5.878;2022-09-09T04:45:11;14.56;118.99
67358;HTU21D;54240;51.096;5.878;2022-09-09T04:47:39;14.48;118.99
67358;HTU21D;54240;51.096;5.878;2022-09-09T04:50:07;14.48;118.99
67358;HTU21D;54240;51.096;5.878;2022-09-09T04:52:36;14.53;118.99
67358;HTU21D;54240;51.096;5.878;2022-09-09T04:55:03;14.54;118.99
67358;HTU21D;54240;51.096;5.878;2022-09-09T04:57:29;14.50;118.99
67358;HTU21D;54240;51.096;5.878;2022-09-09T04:59:58;14.49;118.99
67358;HTU21D;54240;51.096;5.878;2022-09-09T05:02:26;14.43;118.99
67358;HTU21D;54240;51.096;5.878;2022-09-09T05:04:52;14.39;118.99
67358;HTU21D;54240;51.096;5.878;2022-09-09T05:07:18;14.41;118.99
67358;HTU21D;54240;51.096;5.878;2022-09-09T05:09:44;14.42;118.99
67358;HTU21D;54240;51.096;5.878;2022-09-09T05:12:11;14.38;118.99
67358;HTU21D;54240;51.096;5.878;2022-09-09T05:14:42;14.38;118.99
67358;HTU21D;54240;51.096;5.878;2022-09-09T05:17:10;14.35;118.99
67358;HTU21D;54240;51.096;5.878;2022-09-09T05:19:37;14.35;118.99
67358;HTU21D;54240;51.096;5.878;2022-09-09T05:22:04;14.34;118.99
67358;HTU21D;54240;51.096;5.878;2022-09-09T05:24:38;14.37;118.99
67358;HTU21D;54240;51.096;5.878;2022-09-09T05:27:05;14.36;118.99
67358;HTU21D;54240;51.096;5.878;2022-09-09T05:29:32;14.34;118.99
67358;HTU21D;54240;51.096;5.878;2022-09-09T05:32:04;14.36;118.99
67358;HTU21D;54240;51.096;5.878;2022-09-09T05:34:30;14.41;118.99
67358;HTU21D;54240;51.096;5.878;2022-09-09T05:36:56;14.42;118.99
67358;HTU21D;54240;51.096;5.878;2022-09-09T05:39:23;14.43;118.99
67358;HTU21D;54240;51.096;5.878;2022-09-09T05:41:49;14.39;118.99
67358;HTU21D;54240;51.096;5.878;2022-09-09T05:44:16;14.43;118.99
67358;HTU21D;54240;51.096;5.878;2022-09-09T05:46:42;14.44;118.99
67358;HTU21D;54240;51.096;5.878;2022-09-09T05:49:08;14.44;118.99
67358;HTU21D;54240;51.096;5.878;2022-09-09T05:51:35;14.43;118.99
67358;HTU21D;54240;51.096;5.878;2022-09-09T05:54:06;14.47;118.99
67358;HTU21D;54240;51.096;5.878;2022-09-09T05:56:36;14.50;118.99
67358;HTU21D;54240;51.096;5.878;2022-09-09T05:59:02;14.55;118.99
67358;HTU21D;54240;51.096;5.878;2022-09-09T06:01:34;14.60;118.99
67358;HTU21D;54240;51.096;5.878;2022-09-09T06:04:01;14.63;118.99
67358;HTU21D;54240;51.096;5.878;2022-09-09T06:06:33;14.71;118.99
67358;HTU21D;54240;51.096;5.878;2022-09-09T06:09:05;14.71;118.99
67358;HTU21D;54240;51.096;5.878;2022-09-09T06:11:38;14.71;118.99
67358;HTU21D;54240;51.096;5.878;2022-09-09T06:14:06;14.78;118.99
67358;HTU21D;54240;51.096;5.878;2022-09-09T06:16:32;14.78;118.99
67358;HTU21D;54240;51.096;5.878;2022-09-09T06:18:59;14.87;118.99
67358;HTU21D;54240;51.096;5.878;2022-09-09T06:21:29;14.92;118.99
67358;HTU21D;54240;51.096;5.878;2022-09-09T06:23:56;15.01;118.99
67358;HTU21D;54240;51.096;5.878;2022-09-09T06:26:29;15.11;118.99
67358;HTU21D;54240;51.096;5.878;2022-09-09T06:28:57;15.25;118.99
67358;HTU21D;54240;51.096;5.878;2022-09-09T06:31:26;15.34;118.99
67358;HTU21D;54240;51.096;5.878;2022-09-09T06:33:54;15.30;118.99
67358;HTU21D;54240;51.096;5.878;2022-09-09T06:36:25;15.29;118.99
67358;HTU21D;54240;51.096;5.878;2022-09-09T06:38:52;15.37;118.99
67358;HTU21D;54240;51.096;5.878;2022-09-09T06:41:20;15.37;118.99
67358;HTU21D;54240;51.096;5.878;2022-09-09T06:43:47;15.44;118.99
67358;HTU21D;54240;51.096;5.878;2022-09-09T06:46:16;15.49;118.99
67358;HTU21D;54240;51.096;5.878;2022-09-09T06:48:44;15.57;118.99
67358;HTU21D;54240;51.096;5.878;2022-09-09T06:51:17;15.56;118.99
67358;HTU21D;54240;51.096;5.878;2022-09-09T06:53:46;15.58;118.99
67358;HTU21D;54240;51.096;5.878;2022-09-09T06:58:43;15.51;118.99
67358;HTU21D;54240;51.096;5.878;2022-09-09T07:01:18;15.54;118.99
67358;HTU21D;54240;51.096;5.878;2022-09-09T07:03:50;15.52;118.99
67358;HTU21D;54240;51.096;5.878;2022-09-09T07:06:25;15.54;118.99
67358;HTU21D;54240;51.096;5.878;2022-09-09T07:08:54;15.56;118.99
67358;HTU21D;54240;51.096;5.878;2022-09-09T07:11:23;15.61;118.99
67358;HTU21D;54240;51.096;5.878;2022-09-09T07:13:49;15.58;118.99
67358;HTU21D;54240;51.096;5.878;2022-09-09T07:16:18;15.60;118.99
67358;HTU21D;54240;51.096;5.878;2022-09-09T07:18:44;15.60;118.99
67358;HTU21D;54240;51.096;5.878;2022-09-09T07:21:12;15.58;118.99
67358;HTU21D;54240;51.096;5.878;2022-09-09T07:23:38;15.67;118.99
67358;HTU21D;54240;51.096;5.878;2022-09-09T07:26:10;15.70;118.99
67358;HTU21D;54240;51.096;5.878;2022-09-09T07:28:37;15.74;118.99
67358;HTU21D;54240;51.096;5.878;2022-09-09T07:31:05;15.81;118.99
67358;HTU21D;54240;51.096;5.878;2022-09-09T07:33:34;15.89;118.99
67358;HTU21D;54240;51.096;5.878;2022-09-09T07:36:09;16.28;118.99
67358;HTU21D;54240;51.096;5.878;2022-09-09T07:38:49;16.18;118.99
67358;HTU21D;54240;51.096;5.878;2022-09-09T07:41:36;16.57;118.99
67358;HTU21D;54240;51.096;5.878;2022-09-09T07:44:09;16.66;118.99
67358;HTU21D;54240;51.096;5.878;2022-09-09T07:46:37;16.51;118.99
67358;HTU21D;54240;51.096;5.878;2022-09-09T07:49:07;16.56;118.99
67358;HTU21D;54240;51.096;5.878;2022-09-09T07:51:36;16.56;118.99
67358;HTU21D;54240;51.096;5.878;2022-09-09T07:54:09;16.21;118.99
67358;HTU21D;54240;51.096;5.878;2022-09-09T07:56:40;16.31;118.99
67358;HTU21D;54240;51.096;5.878;2022-09-09T07:59:08;16.36;118.99
67358;HTU21D;54240;51.096;5.878;2022-09-09T08:01:37;16.33;118.99
67358;HTU21D;54240;51.096;5.878;2022-09-09T08:04:09;16.18;118.99
67358;HTU21D;54240;51.096;5.878;2022-09-09T08:06:38;16.02;118.99
67358;HTU21D;54240;51.096;5.878;2022-09-09T08:09:08;15.84;118.99
67358;HTU21D;54240;51.096;5.878;2022-09-09T08:11:35;16.07;118.99
67358;HTU21D;54240;51.096;5.878;2022-09-09T08:14:03;15.37;118.99
67358;HTU21D;54240;51.096;5.878;2022-09-09T08:16:32;15.92;118.99
67358;HTU21D;54240;51.096;5.878;2022-09-09T08:18:59;15.91;118.99
67358;HTU21D;54240;51.096;5.878;2022-09-09T08:21:28;16.01;118.99
67358;HTU21D;54240;51.096;5.878;2022-09-09T08:23:58;16.21;118.99
67358;HTU21D;54240;51.096;5.878;2022-09-09T08:26:29;16.19;118.99
67358;HTU21D;54240;51.096;5.878;2022-09-09T08:28:58;16.31;118.99
67358;HTU21D;54240;51.096;5.878;2022-09-09T08:31:29;16.34;118.99
67358;HTU21D;54240;51.096;5.878;2022-09-09T08:33:58;16.06;118.99
67358;HTU21D;54240;51.096;5.878;2022-09-09T08:36:32;16.37;118.99
67358;HTU21D;54240;51.096;5.878;2022-09-09T08:39:04;16.60;118.99
67358;HTU21D;54240;51.096;5.878;2022-09-09T08:52:54;17.54;118.99
67358;HTU21D;54240;51.096;5.878;2022-09-09T08:55:37;16.99;118.99
67358;HTU21D;54240;51.096;5.878;2022-09-09T08:58:25;16.74;118.99
67358;HTU21D;54240;51.096;5.878;2022-09-09T09:12:01;16.47;118.99
67358;HTU21D;54240;51.096;5.878;2022-09-09T09:14:36;16.51;118.99
67358;HTU21D;54240;51.096;5.878;2022-09-09T09:17:18;16.30;118.99
67358;HTU21D;54240;51.096;5.878;2022-09-09T09:19:47;16.45;118.99
67358;HTU21D;54240;51.096;5.878;2022-09-09T09:22:22;16.26;118.99
67358;HTU21D;54240;51.096;5.878;2022-09-09T09:25:01;16.42;118.99
67358;HTU21D;54240;51.096;5.878;2022-09-09T09:27:36;16.73;118.99
67358;HTU21D;54240;51.096;5.878;2022-09-09T09:30:19;16.88;118.99
67358;HTU21D;54240;51.096;5.878;2022-09-09T09:33:02;17.24;118.99
67358;HTU21D;54240;51.096;5.878;2022-09-09T09:35:29;17.54;118.99
67358;HTU21D;54240;51.096;5.878;2022-09-09T09:37:55;17.55;118.99
67358;HTU21D;54240;51.096;5.878;2022-09-09T09:40:22;17.33;118.99
67358;HTU21D;54240;51.096;5.878;2022-09-09T09:42:59;17.15;118.99
67358;HTU21D;54240;51.096;5.878;2022-09-09T09:45:32;17.19;118.99
67358;HTU21D;54240;51.096;5.878;2022-09-09T09:48:02;17.13;118.99
67358;HTU21D;54240;51.096;5.878;2022-09-09T09:50:30;16.70;118.99
67358;HTU21D;54240;51.096;5.878;2022-09-09T09:53:02;17.17;118.99
67358;HTU21D;54240;51.096;5.878;2022-09-09T09:55:33;17.18;118.99
67358;HTU21D;54240;51.096;5.878;2022-09-09T09:58:04;17.23;118.99
67358;HTU21D;54240;51.096;5.878;2022-09-09T10:00:32;17.00;118.99
67358;HTU21D;54240;51.096;5.878;2022-09-09T10:03:31;17.16;118.99
67358;HTU21D;54240;51.096;5.878;2022-09-09T10:05:58;17.09;118.99
67358;HTU21D;54240;51.096;5.878;2022-09-09T10:08:25;17.05;118.99
67358;HTU21D;54240;51.096;5.878;2022-09-09T10:19:13;16.44;118.99
67358;HTU21D;54240;51.096;5.878;2022-09-09T10:30:06;16.82;118.99
67358;HTU21D;54240;51.096;5.878;2022-09-09T10:40:40;16.72;118.99
67358;HTU21D;54240;51.096;5.878;2022-09-09T10:57:08;16.74;118.99
67358;HTU21D;54240;51.096;5.878;2022-09-09T10:59:43;16.63;118.99
67358;HTU21D;54240;51.096;5.878;2022-09-09T11:02:19;17.00;118.99
67358;HTU21D;54240;51.096;5.878;2022-09-09T11:04:58;17.06;118.99
67358;HTU21D;54240;51.096;5.878;2022-09-09T11:07:37;17.17;118.99
67358;HTU21D;54240;51.096;5.878;2022-09-09T11:13:11;16.22;118.99
67358;HTU21D;54240;51.096;5.878;2022-09-09T11:15:51;15.70;118.99
67358;HTU21D;54240;51.096;5.878;2022-09-09T11:18:22;15.66;118.99
67358;HTU21D;54240;51.096;5.878;2022-09-09T11:20:57;15.45;118.99
67358;HTU21D;54240;51.096;5.878;2022-09-09T11:23:37;15.38;118.99
67358;HTU21D;54240;51.096;5.878;2022-09-09T11:26:07;15.31;118.99
67358;HTU21D;54240;51.096;5.878;2022-09-09T11:28:59;15.29;118.99
67358;HTU21D;54240;51.096;5.878;2022-09-09T11:37:36;15.95;118.99
67358;HTU21D;54240;51.096;5.878;2022-09-09T11:40:24;16.14;118.99
67358;HTU21D;54240;51.096;5.878;2022-09-09T11:43:25;16.39;118.99
67358;HTU21D;54240;51.096;5.878;2022-09-09T11:45:59;16.50;118.99
67358;HTU21D;54240;51.096;5.878;2022-09-09T11:48:42;16.62;118.99
67358;HTU21D;54240;51.096;5.878;2022-09-09T11:51:27;16.93;118.99
67358;HTU21D;54240;51.096;5.878;2022-09-09T11:56:33;17.26;118.99
67358;HTU21D;54240;51.096;5.878;2022-09-09T11:59:05;17.49;118.99
67358;HTU21D;54240;51.096;5.878;2022-09-09T12:01:37;17.53;118.99
67358;HTU21D;54240;51.096;5.878;2022-09-09T12:07:04;18.20;118.99
67358;HTU21D;54240;51.096;5.878;2022-09-09T12:09:47;18.50;118.99
67358;HTU21D;54240;51.096;5.878;2022-09-09T12:17:19;18.42;118.99
67358;HTU21D;54240;51.096;5.878;2022-09-09T12:19:46;18.51;118.99
67358;HTU21D;54240;51.096;5.878;2022-09-09T12:30:53;18.98;118.99
67358;HTU21D;54240;51.096;5.878;2022-09-09T12:33:21;19.17;118.99
67358;HTU21D;54240;51.096;5.878;2022-09-09T12:35:57;19.54;118.99
67358;HTU21D;54240;51.096;5.878;2022-09-09T12:38:44;19.73;118.99
67358;HTU21D;54240;51.096;5.878;2022-09-09T12:41:25;19.69;118.99
67358;HTU21D;54240;51.096;5.878;2022-09-09T12:44:09;19.55;118.99
67358;HTU21D;54240;51.096;5.878;2022-09-09T12:46:44;19.45;118.99
67358;HTU21D;54240;51.096;5.878;2022-09-09T12:51:52;19.31;118.99
67358;HTU21D;54240;51.096;5.878;2022-09-09T12:54:19;19.09;118.99
67358;HTU21D;54240;51.096;5.878;2022-09-09T12:56:48;19.00;118.99
67358;HTU21D;54240;51.096;5.878;2022-09-09T12:59:26;18.87;118.99
67358;HTU21D;54240;51.096;5.878;2022-09-09T13:01:57;18.71;118.99
67358;HTU21D;54240;51.096;5.878;2022-09-09T13:04:23;16.45;118.99
67358;HTU21D;54240;51.096;5.878;2022-09-09T13:06:49;15.51;118.99
67358;HTU21D;54240;51.096;5.878;2022-09-09T13:09:15;15.09;118.99
67358;HTU21D;54240;51.096;5.878;2022-09-09T13:11:52;14.87;118.99
67358;HTU21D;54240;51.096;5.878;2022-09-09T13:14:29;14.75;118.99
67358;HTU21D;54240;51.096;5.878;2022-09-09T13:17:01;14.86;118.99
67358;HTU21D;54240;51.096;5.878;2022-09-09T13:19:37;14.84;118.99
67358;HTU21D;54240;51.096;5.878;2022-09-09T13:22:30;14.84;118.99
67358;HTU21D;54240;51.096;5.878;2022-09-09T13:25:04;14.91;118.99
67358;HTU21D;54240;51.096;5.878;2022-09-09T13:27:33;14.93;118.99
67358;HTU21D;54240;51.096;5.878;2022-09-09T13:30:00;14.95;118.99
67358;HTU21D;54240;51.096;5.878;2022-09-09T13:32:27;15.04;118.99
67358;HTU21D;54240;51.096;5.878;2022-09-09T13:34:56;15.06;118.99
67358;HTU21D;54240;51.096;5.878;2022-09-09T13:37:30;15.17;118.99
67358;HTU21D;54240;51.096;5.878;2022-09-09T13:39:58;15.30;118.99
67358;HTU21D;54240;51.096;5.878;2022-09-09T13:42:40;15.51;118.99
67358;HTU21D;54240;51.096;5.878;2022-09-09T13:45:23;15.66;118.99
67358;HTU21D;54240;51.096;5.878;2022-09-09T13:47:50;15.78;118.99
67358;HTU21D;54240;51.096;5.878;2022-09-09T13:50:30;15.92;118.99
67358;HTU21D;54240;51.096;5.878;2022-09-09T13:52:58;16.04;118.99
67358;HTU21D;54240;51.096;5.878;2022-09-09T13:55:29;16.15;118.99
67358;HTU21D;54240;51.096;5.878;2022-09-09T13:58:01;16.33;118.99
67358;HTU21D;54240;51.096;5.878;2022-09-09T14:00:33;16.72;118.99
67358;HTU21D;54240;51.096;5.878;2022-09-09T14:02:59;17.00;118.99
67358;HTU21D;54240;51.096;5.878;2022-09-09T14:05:31;17.29;118.99
67358;HTU21D;54240;51.096;5.878;2022-09-09T14:07:57;17.40;118.99
67358;HTU21D;54240;51.096;5.878;2022-09-09T14:10:23;17.64;118.99
67358;HTU21D;54240;51.096;5.878;2022-09-09T14:12:49;17.93;118.99
67358;HTU21D;54240;51.096;5.878;2022-09-09T14:15:15;18.25;118.99
67358;HTU21D;54240;51.096;5.878;2022-09-09T14:17:42;18.67;118.99
67358;HTU21D;54240;51.096;5.878;2022-09-09T14:20:08;19.07;118.99
67358;HTU21D;54240;51.096;5.878;2022-09-09T14:22:35;19.45;118.99
67358;HTU21D;54240;51.096;5.878;2022-09-09T14:25:03;19.86;118.99
67358;HTU21D;54240;51.096;5.878;2022-09-09T14:27:29;20.20;118.99
67358;HTU21D;54240;51.096;5.878;2022-09-09T14:29:55;20.36;118.99
67358;HTU21D;54240;51.096;5.878;2022-09-09T14:32:22;20.22;118.99
67358;HTU21D;54240;51.096;5.878;2022-09-09T14:34:47;20.24;118.99
67358;HTU21D;54240;51.096;5.878;2022-09-09T14:37:16;20.20;118.99
67358;HTU21D;54240;51.096;5.878;2022-09-09T14:39:43;20.40;118.99
67358;HTU21D;54240;51.096;5.878;2022-09-09T14:42:13;20.22;118.99
67358;HTU21D;54240;51.096;5.878;2022-09-09T14:44:40;20.18;118.99
67358;HTU21D;54240;51.096;5.878;2022-09-09T14:47:07;20.53;118.99
67358;HTU21D;54240;51.096;5.878;2022-09-09T14:49:37;20.78;118.99
67358;HTU21D;54240;51.096;5.878;2022-09-09T14:52:03;21.18;118.99
67358;HTU21D;54240;51.096;5.878;2022-09-09T14:54:31;21.35;118.99
67358;HTU21D;54240;51.096;5.878;2022-09-09T14:56:58;21.27;118.99
67358;HTU21D;54240;51.096;5.878;2022-09-09T14:59:24;21.07;118.99
67358;HTU21D;54240;51.096;5.878;2022-09-09T15:01:50;20.78;118.99
67358;HTU21D;54240;51.096;5.878;2022-09-09T15:04:16;20.62;118.99
67358;HTU21D;54240;51.096;5.878;2022-09-09T15:06:43;20.76;118.99
67358;HTU21D;54240;51.096;5.878;2022-09-09T15:09:14;20.84;118.99
67358;HTU21D;54240;51.096;5.878;2022-09-09T15:11:40;20.66;118.99
67358;HTU21D;54240;51.096;5.878;2022-09-09T15:14:08;20.66;118.99
67358;HTU21D;54240;51.096;5.878;2022-09-09T15:16:34;20.86;118.99
67358;HTU21D;54240;51.096;5.878;2022-09-09T15:19:02;20.92;118.99
67358;HTU21D;54240;51.096;5.878;2022-09-09T15:21:34;21.24;118.99
67358;HTU21D;54240;51.096;5.878;2022-09-09T15:24:01;21.57;118.99
67358;HTU21D;54240;51.096;5.878;2022-09-09T15:26:27;21.42;118.99
67358;HTU21D;54240;51.096;5.878;2022-09-09T15:28:53;21.25;118.99
67358;HTU21D;54240;51.096;5.878;2022-09-09T15:31:23;21.30;118.99
67358;HTU21D;54240;51.096;5.878;2022-09-09T15:33:51;21.49;118.99
67358;HTU21D;54240;51.096;5.878;2022-09-09T15:36:23;21.47;118.99
67358;HTU21D;54240;51.096;5.878;2022-09-09T15:38:49;21.10;118.99
67358;HTU21D;54240;51.096;5.878;2022-09-09T15:41:16;20.84;118.99
67358;HTU21D;54240;51.096;5.878;2022-09-09T15:43:44;20.81;118.99
67358;HTU21D;54240;51.096;5.878;2022-09-09T15:48:44;20.98;118.99
67358;HTU21D;54240;51.096;5.878;2022-09-09T15:51:11;21.08;118.99
67358;HTU21D;54240;51.096;5.878;2022-09-09T15:53:40;21.01;118.99
67358;HTU21D;54240;51.096;5.878;2022-09-09T15:56:06;20.79;118.99
67358;HTU21D;54240;51.096;5.878;2022-09-09T15:58:33;20.85;118.99
67358;HTU21D;54240;51.096;5.878;2022-09-09T16:01:07;20.99;118.99
67358;HTU21D;54240;51.096;5.878;2022-09-09T16:03:40;21.11;118.99
67358;HTU21D;54240;51.096;5.878;2022-09-09T16:06:09;21.27;118.99
67358;HTU21D;54240;51.096;5.878;2022-09-09T16:08:37;20.98;118.99
67358;HTU21D;54240;51.096;5.878;2022-09-09T16:11:08;20.83;118.99
67358;HTU21D;54240;51.096;5.878;2022-09-09T16:13:39;20.47;118.99
67358;HTU21D;54240;51.096;5.878;2022-09-09T16:16:06;20.40;118.99
67358;HTU21D;54240;51.096;5.878;2022-09-09T16:18:37;20.26;118.99
67358;HTU21D;54240;51.096;5.878;2022-09-09T16:21:04;20.09;118.99
67358;HTU21D;54240;51.096;5.878;2022-09-09T16:23:31;20.05;118.99
67358;HTU21D;54240;51.096;5.878;2022-09-09T16:25:58;20.10;118.99
67358;HTU21D;54240;51.096;5.878;2022-09-09T16:28:23;19.85;118.99
67358;HTU21D;54240;51.096;5.878;2022-09-09T16:30:50;19.86;118.99
67358;HTU21D;54240;51.096;5.878;2022-09-09T16:33:16;20.04;118.99
67358;HTU21D;54240;51.096;5.878;2022-09-09T16:35:43;20.01;118.99
67358;HTU21D;54240;51.096;5.878;2022-09-09T16:38:10;20.20;118.99
67358;HTU21D;54240;51.096;5.878;2022-09-09T16:40:36;20.62;118.99
67358;HTU21D;54240;51.096;5.878;2022-09-09T16:43:03;21.20;118.99
67358;HTU21D;54240;51.096;5.878;2022-09-09T16:45:29;20.85;118.99
67358;HTU21D;54240;51.096;5.878;2022-09-09T16:47:55;20.05;118.99
67358;HTU21D;54240;51.096;5.878;2022-09-09T16:50:21;19.61;118.99
67358;HTU21D;54240;51.096;5.878;2022-09-09T16:52:47;19.52;118.99
67358;HTU21D;54240;51.096;5.878;2022-09-09T16:55:13;19.17;118.99
67358;HTU21D;54240;51.096;5.878;2022-09-09T16:57:39;19.16;118.99
67358;HTU21D;54240;51.096;5.878;2022-09-09T17:00:07;18.91;118.99
67358;HTU21D;54240;51.096;5.878;2022-09-09T17:02:34;18.87;118.99
67358;HTU21D;54240;51.096;5.878;2022-09-09T17:05:00;18.79;118.99
67358;HTU21D;54240;51.096;5.878;2022-09-09T17:07:25;18.68;118.99
67358;HTU21D;54240;51.096;5.878;2022-09-09T17:09:51;18.74;118.99
67358;HTU21D;54240;51.096;5.878;2022-09-09T17:12:19;18.62;118.99
67358;HTU21D;54240;51.096;5.878;2022-09-09T17:14:46;18.61;118.99
67358;HTU21D;54240;51.096;5.878;2022-09-09T17:17:12;18.49;118.99
67358;HTU21D;54240;51.096;5.878;2022-09-09T17:19:38;18.32;118.99
67358;HTU21D;54240;51.096;5.878;2022-09-09T17:22:04;18.17;118.99
67358;HTU21D;54240;51.096;5.878;2022-09-09T17:24:30;18.17;118.99
67358;HTU21D;54240;51.096;5.878;2022-09-09T17:26:56;18.12;118.99
67358;HTU21D;54240;51.096;5.878;2022-09-09T17:29:22;17.93;118.99
67358;HTU21D;54240;51.096;5.878;2022-09-09T17:31:48;17.85;118.99
67358;HTU21D;54240;51.096;5.878;2022-09-09T17:34:14;17.97;118.99
67358;HTU21D;54240;51.096;5.878;2022-09-09T17:36:40;17.84;118.99